sensor_id;sensor_type;location;lat;lon;timestamp;pressure;altitude;pressure_sealevel;temperature;humidity
64340;BME280;63709;53.258;-8.814;2023-06-26T00:00:11;101572.81;;;18.49;100.00
64340;BME280;63709;53.258;-8.814;2023-06-26T00:02:38;101569.28;;;18.49;100.00
64340;BME280;63709;53.258;-8.814;2023-06-26T00:05:04;101570.41;;;18.46;100.00
64340;BME280;63709;53.258;-8.814;2023-06-26T00:07:30;101572.69;;;18.51;100.00
64340;BME280;63709;53.258;-8.814;2023-06-26T00:09:57;101583.94;;;18.46;100.00
64340;BME280;63709;53.258;-8.814;2023-06-26T00:12:32;101579.53;;;18.45;100.00
64340;BME280;63709;53.258;-8.814;2023-06-26T00:15:00;101583.63;;;18.49;100.00
64340;BME280;63709;53.258;-8.814;2023-06-26T00:17:26;101588.50;;;18.46;100.00
64340;BME280;63709;53.258;-8.814;2023-06-26T00:19:51;101582.53;;;18.42;100.00
64340;BME280;63709;53.258;-8.814;2023-06-26T00:22:18;101584.94;;;18.45;100.00
64340;BME280;63709;53.258;-8.814;2023-06-26T00:24:46;101579.59;;;18.35;100.00
64340;BME280;63709;53.258;-8.814;2023-06-26T00:27:15;101582.69;;;18.41;100.00
64340;BME280;63709;53.258;-8.814;2023-06-26T00:29:41;101582.28;;;18.35;100.00
64340;BME280;63709;53.258;-8.814;2023-06-26T00:32:12;101570.34;;;18.28;100.00
64340;BME280;63709;53.258;-8.814;2023-06-26T00:34:38;101581.41;;;18.35;100.00
64340;BME280;63709;53.258;-8.814;2023-06-26T00:37:04;101587.81;;;18.44;100.00
64340;BME280;63709;53.258;-8.814;2023-06-26T00:39:30;101582.53;;;18.42;100.00
64340;BME280;63709;53.258;-8.814;2023-06-26T00:41:56;101575.59;;;18.30;100.00
64340;BME280;63709;53.258;-8.814;2023-06-26T00:44:23;101585.41;;;18.31;100.00
64340;BME280;63709;53.258;-8.814;2023-06-26T00:46:50;101604.16;;;18.42;100.00
64340;BME280;63709;53.258;-8.814;2023-06-26T00:49:16;101603.16;;;18.43;100.00
64340;BME280;63709;53.258;-8.814;2023-06-26T00:51:43;101590.78;;;18.41;100.00
64340;BME280;63709;53.258;-8.814;2023-06-26T00:54:08;101582.41;;;18.44;100.00
64340;BME280;63709;53.258;-8.814;2023-06-26T00:56:35;101597.59;;;18.45;100.00
64340;BME280;63709;53.258;-8.814;2023-06-26T00:59:03;101583.38;;;18.43;100.00
64340;BME280;63709;53.258;-8.814;2023-06-26T01:01:29;101595.84;;;18.53;100.00
64340;BME280;63709;53.258;-8.814;2023-06-26T01:03:57;101594.13;;;18.62;100.00
64340;BME280;63709;53.258;-8.814;2023-06-26T01:06:25;101598.81;;;18.60;100.00
64340;BME280;63709;53.258;-8.814;2023-06-26T01:08:53;101593.84;;;18.65;100.00
64340;BME280;63709;53.258;-8.814;2023-06-26T01:11:19;101602.66;;;18.77;100.00
64340;BME280;63709;53.258;-8.814;2023-06-26T01:13:45;101598.38;;;18.65;100.00
64340;BME280;63709;53.258;-8.814;2023-06-26T01:16:11;101607.41;;;18.55;100.00
64340;BME280;63709;53.258;-8.814;2023-06-26T01:18:38;101595.00;;;18.53;100.00
64340;BME280;63709;53.258;-8.814;2023-06-26T01:21:07;101610.09;;;18.55;100.00
64340;BME280;63709;53.258;-8.814;2023-06-26T01:24:05;101611.59;;;18.68;100.00
64340;BME280;63709;53.258;-8.814;2023-06-26T01:26:36;101608.22;;;18.66;100.00
64340;BME280;63709;53.258;-8.814;2023-06-26T01:29:06;101612.63;;;18.67;100.00
64340;BME280;63709;53.258;-8.814;2023-06-26T01:31:33;101595.25;;;18.69;100.00
64340;BME280;63709;53.258;-8.814;2023-06-26T01:34:00;101608.66;;;18.71;100.00
64340;BME280;63709;53.258;-8.814;2023-06-26T01:36:26;101611.78;;;18.66;100.00
64340;BME280;63709;53.258;-8.814;2023-06-26T01:38:52;101616.31;;;18.66;100.00
64340;BME280;63709;53.258;-8.814;2023-06-26T01:41:19;101614.47;;;18.66;100.00
64340;BME280;63709;53.258;-8.814;2023-06-26T01:46:38;101617.34;;;18.55;100.00
64340;BME280;63709;53.258;-8.814;2023-06-26T01:52:35;101615.78;;;18.52;100.00
64340;BME280;63709;53.258;-8.814;2023-06-26T01:57:38;101615.13;;;18.41;100.00
64340;BME280;63709;53.258;-8.814;2023-06-26T02:00:05;101612.72;;;18.28;100.00
64340;BME280;63709;53.258;-8.814;2023-06-26T02:02:34;101613.88;;;18.25;100.00
64340;BME280;63709;53.258;-8.814;2023-06-26T02:05:00;101613.16;;;18.33;100.00
64340;BME280;63709;53.258;-8.814;2023-06-26T02:07:26;101619.28;;;18.25;100.00
64340;BME280;63709;53.258;-8.814;2023-06-26T02:09:53;101616.47;;;18.17;100.00
64340;BME280;63709;53.258;-8.814;2023-06-26T02:12:19;101625.72;;;18.14;100.00
64340;BME280;63709;53.258;-8.814;2023-06-26T02:14:46;101628.97;;;18.18;100.00
64340;BME280;63709;53.258;-8.814;2023-06-26T02:17:13;101620.44;;;18.13;100.00
64340;BME280;63709;53.258;-8.814;2023-06-26T02:19:38;101627.84;;;18.21;100.00
64340;BME280;63709;53.258;-8.814;2023-06-26T02:22:10;101615.59;;;18.17;100.00
64340;BME280;63709;53.258;-8.814;2023-06-26T02:24:36;101623.28;;;18.11;100.00
64340;BME280;63709;53.258;-8.814;2023-06-26T02:27:04;101613.47;;;18.10;100.00
64340;BME280;63709;53.258;-8.814;2023-06-26T02:29:29;101600.25;;;17.98;100.00
64340;BME280;63709;53.258;-8.814;2023-06-26T02:31:55;101616.19;;;18.01;100.00
64340;BME280;63709;53.258;-8.814;2023-06-26T02:34:20;101624.44;;;17.99;100.00
64340;BME280;63709;53.258;-8.814;2023-06-26T02:36:47;101613.06;;;17.86;100.00
64340;BME280;63709;53.258;-8.814;2023-06-26T02:39:13;101626.03;;;17.92;100.00
64340;BME280;63709;53.258;-8.814;2023-06-26T02:41:41;101608.06;;;17.72;100.00
64340;BME280;63709;53.258;-8.814;2023-06-26T02:44:07;101625.16;;;17.92;100.00
64340;BME280;63709;53.258;-8.814;2023-06-26T02:46:33;101621.19;;;17.86;100.00
64340;BME280;63709;53.258;-8.814;2023-06-26T02:49:01;101622.31;;;17.83;100.00
64340;BME280;63709;53.258;-8.814;2023-06-26T02:51:27;101623.47;;;17.81;100.00
64340;BME280;63709;53.258;-8.814;2023-06-26T02:53:53;101639.53;;;17.92;100.00
64340;BME280;63709;53.258;-8.814;2023-06-26T02:56:19;101632.97;;;17.95;100.00
64340;BME280;63709;53.258;-8.814;2023-06-26T02:58:45;101615.50;;;17.89;100.00
64340;BME280;63709;53.258;-8.814;2023-06-26T03:01:16;101634.97;;;18.02;100.00
64340;BME280;63709;53.258;-8.814;2023-06-26T03:03:42;101635.66;;;17.95;100.00
64340;BME280;63709;53.258;-8.814;2023-06-26T03:06:08;101630.69;;;17.90;100.00
64340;BME280;63709;53.258;-8.814;2023-06-26T03:08:37;101643.91;;;17.83;100.00
64340;BME280;63709;53.258;-8.814;2023-06-26T03:11:08;101635.53;;;17.86;100.00
64340;BME280;63709;53.258;-8.814;2023-06-26T03:13:35;101658.00;;;17.87;100.00
64340;BME280;63709;53.258;-8.814;2023-06-26T03:16:01;101660.84;;;17.95;100.00
64340;BME280;63709;53.258;-8.814;2023-06-26T03:18:27;101644.47;;;17.87;100.00
64340;BME280;63709;53.258;-8.814;2023-06-26T03:20:55;101665.38;;;17.95;100.00
64340;BME280;63709;53.258;-8.814;2023-06-26T03:23:23;101662.41;;;17.98;100.00
64340;BME280;63709;53.258;-8.814;2023-06-26T03:25:50;101664.13;;;17.99;100.00
64340;BME280;63709;53.258;-8.814;2023-06-26T03:28:16;101678.22;;;18.02;100.00
64340;BME280;63709;53.258;-8.814;2023-06-26T03:30:43;101681.31;;;18.07;100.00
64340;BME280;63709;53.258;-8.814;2023-06-26T03:33:08;101675.91;;;18.07;100.00
64340;BME280;63709;53.258;-8.814;2023-06-26T03:35:34;101665.09;;;18.07;100.00
64340;BME280;63709;53.258;-8.814;2023-06-26T03:38:00;101640.94;;;17.86;100.00
64340;BME280;63709;53.258;-8.814;2023-06-26T03:40:26;101672.22;;;18.08;100.00
64340;BME280;63709;53.258;-8.814;2023-06-26T03:42:52;101673.38;;;18.06;100.00
64340;BME280;63709;53.258;-8.814;2023-06-26T03:45:18;101681.31;;;18.07;100.00
64340;BME280;63709;53.258;-8.814;2023-06-26T03:47:45;101671.78;;;18.13;100.00
64340;BME280;63709;53.258;-8.814;2023-06-26T03:50:18;101677.34;;;18.11;100.00
64340;BME280;63709;53.258;-8.814;2023-06-26T03:52:44;101668.53;;;18.00;100.00
64340;BME280;63709;53.258;-8.814;2023-06-26T03:55:12;101685.88;;;18.07;100.00
64340;BME280;63709;53.258;-8.814;2023-06-26T03:57:38;101672.50;;;18.05;100.00
64340;BME280;63709;53.258;-8.814;2023-06-26T04:00:04;101676.63;;;18.19;100.00
64340;BME280;63709;53.258;-8.814;2023-06-26T04:02:39;101671.06;;;18.11;100.00
64340;BME280;63709;53.258;-8.814;2023-06-26T04:05:05;101683.31;;;18.25;100.00
64340;BME280;63709;53.258;-8.814;2023-06-26T04:07:32;101683.00;;;18.28;100.00
64340;BME280;63709;53.258;-8.814;2023-06-26T04:09:58;101686.41;;;18.30;100.00
64340;BME280;63709;53.258;-8.814;2023-06-26T04:12:25;101677.31;;;18.31;100.00
64340;BME280;63709;53.258;-8.814;2023-06-26T04:14:51;101672.34;;;18.17;100.00
64340;BME280;63709;53.258;-8.814;2023-06-26T04:17:17;101682.59;;;18.32;100.00
64340;BME280;63709;53.258;-8.814;2023-06-26T04:19:43;101665.94;;;18.27;100.00
64340;BME280;63709;53.258;-8.814;2023-06-26T04:22:09;101675.44;;;18.31;100.00
64340;BME280;63709;53.258;-8.814;2023-06-26T04:24:41;101683.44;;;18.33;100.00
64340;BME280;63709;53.258;-8.814;2023-06-26T04:27:07;101674.63;;;18.21;100.00
64340;BME280;63709;53.258;-8.814;2023-06-26T04:29:33;101670.47;;;18.27;100.00
64340;BME280;63709;53.258;-8.814;2023-06-26T04:31:59;101665.66;;;18.30;100.00
64340;BME280;63709;53.258;-8.814;2023-06-26T04:34:27;101695.25;;;18.32;100.00
64340;BME280;63709;53.258;-8.814;2023-06-26T04:36:55;101691.25;;;18.36;100.00
64340;BME280;63709;53.258;-8.814;2023-06-26T04:39:21;101692.09;;;18.36;100.00
64340;BME280;63709;53.258;-8.814;2023-06-26T04:41:50;101691.25;;;18.36;100.00
64340;BME280;63709;53.258;-8.814;2023-06-26T04:44:16;101694.94;;;18.35;100.00
64340;BME280;63709;53.258;-8.814;2023-06-26T04:46:43;101688.28;;;18.29;100.00
64340;BME280;63709;53.258;-8.814;2023-06-26T04:49:10;101689.13;;;18.30;100.00
64340;BME280;63709;53.258;-8.814;2023-06-26T04:51:36;101691.25;;;18.36;100.00
64340;BME280;63709;53.258;-8.814;2023-06-26T04:54:07;101695.81;;;18.26;100.00
64340;BME280;63709;53.258;-8.814;2023-06-26T04:56:35;101702.50;;;18.22;100.00
64340;BME280;63709;53.258;-8.814;2023-06-26T04:59:02;101697.94;;;18.12;100.00
64340;BME280;63709;53.258;-8.814;2023-06-26T05:01:29;101708.91;;;18.11;100.00
64340;BME280;63709;53.258;-8.814;2023-06-26T05:04:01;101698.94;;;18.02;100.00
64340;BME280;63709;53.258;-8.814;2023-06-26T05:06:28;101693.53;;;18.11;100.00
64340;BME280;63709;53.258;-8.814;2023-06-26T05:08:53;101694.97;;;18.16;100.00
64340;BME280;63709;53.258;-8.814;2023-06-26T05:11:20;101698.78;;;18.23;100.00
64340;BME280;63709;53.258;-8.814;2023-06-26T05:13:45;101701.34;;;18.24;100.00
64340;BME280;63709;53.258;-8.814;2023-06-26T05:16:11;101701.63;;;18.31;100.00
64340;BME280;63709;53.258;-8.814;2023-06-26T05:18:39;101692.38;;;18.24;100.00
64340;BME280;63709;53.258;-8.814;2023-06-26T05:21:05;101708.31;;;18.36;100.00
64340;BME280;63709;53.258;-8.814;2023-06-26T05:23:31;101713.31;;;18.22;100.00
64340;BME280;63709;53.258;-8.814;2023-06-26T05:25:57;101713.28;;;18.31;100.00
64340;BME280;63709;53.258;-8.814;2023-06-26T05:28:28;101715.44;;;18.28;100.00
64340;BME280;63709;53.258;-8.814;2023-06-26T05:30:57;101695.09;;;18.24;100.00
64340;BME280;63709;53.258;-8.814;2023-06-26T05:33:25;101704.63;;;18.28;100.00
64340;BME280;63709;53.258;-8.814;2023-06-26T05:35:53;101706.63;;;18.26;100.00
64340;BME280;63709;53.258;-8.814;2023-06-26T05:38:19;101719.44;;;18.43;100.00
64340;BME280;63709;53.258;-8.814;2023-06-26T05:40:45;101713.28;;;18.41;100.00
64340;BME280;63709;53.258;-8.814;2023-06-26T05:43:11;101726.94;;;18.49;100.00
64340;BME280;63709;53.258;-8.814;2023-06-26T05:45:38;101727.22;;;18.56;100.00
64340;BME280;63709;53.258;-8.814;2023-06-26T05:48:04;101721.25;;;18.52;100.00
64340;BME280;63709;53.258;-8.814;2023-06-26T05:50:30;101711.00;;;18.56;100.00
64340;BME280;63709;53.258;-8.814;2023-06-26T05:52:55;101721.66;;;18.57;100.00
64340;BME280;63709;53.258;-8.814;2023-06-26T05:55:22;101725.34;;;18.66;100.00
64340;BME280;63709;53.258;-8.814;2023-06-26T05:57:48;101711.72;;;18.48;100.00
64340;BME280;63709;53.258;-8.814;2023-06-26T06:00:15;101722.66;;;18.56;100.00
64340;BME280;63709;53.258;-8.814;2023-06-26T06:02:42;101725.38;;;18.56;100.00
64340;BME280;63709;53.258;-8.814;2023-06-26T06:05:09;101729.06;;;18.55;100.00
64340;BME280;63709;53.258;-8.814;2023-06-26T06:07:35;101719.69;;;18.50;100.00
64340;BME280;63709;53.258;-8.814;2023-06-26T06:10:01;101729.94;;;18.56;100.00
64340;BME280;63709;53.258;-8.814;2023-06-26T06:12:28;101727.63;;;18.61;100.00
64340;BME280;63709;53.258;-8.814;2023-06-26T06:14:55;101714.25;;;18.59;100.00
64340;BME280;63709;53.258;-8.814;2023-06-26T06:17:21;101720.97;;;18.55;100.00
64340;BME280;63709;53.258;-8.814;2023-06-26T06:19:46;101707.44;;;18.55;100.00
64340;BME280;63709;53.258;-8.814;2023-06-26T06:22:13;101711.84;;;18.66;100.00
64340;BME280;63709;53.258;-8.814;2023-06-26T06:24:39;101732.16;;;18.80;100.00
64340;BME280;63709;53.258;-8.814;2023-06-26T06:27:05;101708.16;;;18.77;100.00
64340;BME280;63709;53.258;-8.814;2023-06-26T06:29:31;101739.81;;;18.94;100.00
64340;BME280;63709;53.258;-8.814;2023-06-26T06:31:57;101732.72;;;18.93;100.00
64340;BME280;63709;53.258;-8.814;2023-06-26T06:34:24;101738.53;;;18.98;100.00
64340;BME280;63709;53.258;-8.814;2023-06-26T06:36:52;101747.63;;;19.07;100.00
64340;BME280;63709;53.258;-8.814;2023-06-26T06:39:17;101736.66;;;19.08;100.00
64340;BME280;63709;53.258;-8.814;2023-06-26T06:41:43;101730.94;;;19.12;100.00
64340;BME280;63709;53.258;-8.814;2023-06-26T06:44:08;101736.88;;;19.25;100.00
64340;BME280;63709;53.258;-8.814;2023-06-26T06:46:35;101741.97;;;19.28;100.00
64340;BME280;63709;53.258;-8.814;2023-06-26T06:49:00;101732.56;;;19.32;100.00
64340;BME280;63709;53.258;-8.814;2023-06-26T06:51:28;101736.13;;;19.32;100.00
64340;BME280;63709;53.258;-8.814;2023-06-26T06:53:53;101738.09;;;19.40;100.00
64340;BME280;63709;53.258;-8.814;2023-06-26T06:56:22;101734.38;;;19.41;100.00
64340;BME280;63709;53.258;-8.814;2023-06-26T06:58:49;101730.50;;;19.44;100.00
64340;BME280;63709;53.258;-8.814;2023-06-26T07:01:15;101750.41;;;19.52;100.00
64340;BME280;63709;53.258;-8.814;2023-06-26T07:03:41;101740.69;;;19.59;100.00
64340;BME280;63709;53.258;-8.814;2023-06-26T07:06:06;101752.22;;;19.62;100.00
64340;BME280;63709;53.258;-8.814;2023-06-26T07:08:32;101747.50;;;19.73;100.00
64340;BME280;63709;53.258;-8.814;2023-06-26T07:10:58;101711.19;;;19.56;100.00
64340;BME280;63709;53.258;-8.814;2023-06-26T07:13:25;101755.94;;;19.88;100.00
64340;BME280;63709;53.258;-8.814;2023-06-26T07:15:52;101762.06;;;19.90;100.00
64340;BME280;63709;53.258;-8.814;2023-06-26T07:18:18;101753.28;;;19.78;100.00
64340;BME280;63709;53.258;-8.814;2023-06-26T07:20:44;101770.59;;;19.95;100.00
64340;BME280;63709;53.258;-8.814;2023-06-26T07:23:09;101782.53;;;20.02;100.00
64340;BME280;63709;53.258;-8.814;2023-06-26T07:25:37;101779.16;;;19.91;100.00
64340;BME280;63709;53.258;-8.814;2023-06-26T07:28:03;101775.50;;;19.82;100.00
64340;BME280;63709;53.258;-8.814;2023-06-26T07:30:29;101791.84;;;19.90;100.00
64340;BME280;63709;53.258;-8.814;2023-06-26T07:32:54;101771.78;;;19.83;100.00
64340;BME280;63709;53.258;-8.814;2023-06-26T07:35:20;101787.84;;;19.94;100.00
64340;BME280;63709;53.258;-8.814;2023-06-26T07:37:46;101801.38;;;19.94;100.00
64340;BME280;63709;53.258;-8.814;2023-06-26T07:40:17;101790.06;;;19.81;100.00
64340;BME280;63709;53.258;-8.814;2023-06-26T07:42:44;101806.13;;;19.92;100.00
64340;BME280;63709;53.258;-8.814;2023-06-26T07:45:12;101789.06;;;19.82;100.00
64340;BME280;63709;53.258;-8.814;2023-06-26T07:47:38;101781.31;;;19.87;100.00
64340;BME280;63709;53.258;-8.814;2023-06-26T07:50:05;101803.75;;;20.07;100.00
64340;BME280;63709;53.258;-8.814;2023-06-26T07:52:31;101800.94;;;20.17;100.00
64340;BME280;63709;53.258;-8.814;2023-06-26T07:54:58;101808.19;;;20.26;100.00
64340;BME280;63709;53.258;-8.814;2023-06-26T07:57:25;101805.00;;;20.30;100.00
64340;BME280;63709;53.258;-8.814;2023-06-26T07:59:50;101830.53;;;20.28;100.00
64340;BME280;63709;53.258;-8.814;2023-06-26T08:02:16;101834.88;;;20.21;100.00
64340;BME280;63709;53.258;-8.814;2023-06-26T08:04:43;101822.97;;;20.14;100.00
64340;BME280;63709;53.258;-8.814;2023-06-26T08:07:09;101828.41;;;20.14;100.00
64340;BME280;63709;53.258;-8.814;2023-06-26T08:09:35;101812.00;;;19.88;100.00
64340;BME280;63709;53.258;-8.814;2023-06-26T08:12:00;101815.41;;;19.90;100.00
64340;BME280;63709;53.258;-8.814;2023-06-26T08:14:27;101845.47;;;19.96;100.00
64340;BME280;63709;53.258;-8.814;2023-06-26T08:16:54;101849.41;;;20.02;100.00
64340;BME280;63709;53.258;-8.814;2023-06-26T08:19:19;101849.75;;;19.99;100.00
64340;BME280;63709;53.258;-8.814;2023-06-26T08:21:46;101863.38;;;20.07;100.00
64340;BME280;63709;53.258;-8.814;2023-06-26T08:24:12;101874.78;;;20.11;100.00
64340;BME280;63709;53.258;-8.814;2023-06-26T08:26:39;101862.75;;;20.13;100.00
64340;BME280;63709;53.258;-8.814;2023-06-26T08:29:05;101868.63;;;20.09;100.00
64340;BME280;63709;53.258;-8.814;2023-06-26T08:31:34;101854.53;;;20.05;100.00
64340;BME280;63709;53.258;-8.814;2023-06-26T08:34:04;101842.38;;;19.91;100.00
64340;BME280;63709;53.258;-8.814;2023-06-26T08:36:34;101849.41;;;19.84;100.00
64340;BME280;63709;53.258;-8.814;2023-06-26T08:39:00;101858.47;;;19.93;100.00
64340;BME280;63709;53.258;-8.814;2023-06-26T08:41:26;101852.22;;;19.82;100.00
64340;BME280;63709;53.258;-8.814;2023-06-26T08:43:52;101864.91;;;19.92;100.00
64340;BME280;63709;53.258;-8.814;2023-06-26T08:46:19;101840.84;;;19.79;100.00
64340;BME280;63709;53.258;-8.814;2023-06-26T08:48:55;101859.69;;;19.98;100.00
64340;BME280;63709;53.258;-8.814;2023-06-26T08:51:21;101870.25;;;20.01;100.00
64340;BME280;63709;53.258;-8.814;2023-06-26T08:56:22;101858.84;;;20.25;100.00
64340;BME280;63709;53.258;-8.814;2023-06-26T08:58:55;101852.03;;;20.39;100.00
64340;BME280;63709;53.258;-8.814;2023-06-26T09:01:21;101861.38;;;20.54;100.00
64340;BME280;63709;53.258;-8.814;2023-06-26T09:03:48;101859.13;;;20.50;100.00
64340;BME280;63709;53.258;-8.814;2023-06-26T09:06:13;101861.75;;;20.60;100.00
64340;BME280;63709;53.258;-8.814;2023-06-26T09:08:39;101852.06;;;20.57;100.00
64340;BME280;63709;53.258;-8.814;2023-06-26T09:11:05;101853.00;;;20.66;100.00
64340;BME280;63709;53.258;-8.814;2023-06-26T09:13:32;101876.56;;;20.83;100.00
64340;BME280;63709;53.258;-8.814;2023-06-26T09:15:58;101878.09;;;20.86;100.00
64340;BME280;63709;53.258;-8.814;2023-06-26T09:18:24;101860.06;;;20.76;100.00
64340;BME280;63709;53.258;-8.814;2023-06-26T09:20:50;101868.72;;;20.80;100.00
64340;BME280;63709;53.258;-8.814;2023-06-26T09:23:18;101875.03;;;20.81;100.00
64340;BME280;63709;53.258;-8.814;2023-06-26T09:25:47;101891.69;;;20.86;100.00
64340;BME280;63709;53.258;-8.814;2023-06-26T09:28:13;101891.19;;;20.90;100.00
64340;BME280;63709;53.258;-8.814;2023-06-26T09:30:39;101883.06;;;20.90;100.00
64340;BME280;63709;53.258;-8.814;2023-06-26T09:33:19;101895.66;;;20.91;100.00
64340;BME280;63709;53.258;-8.814;2023-06-26T09:35:46;101890.28;;;20.99;100.00
64340;BME280;63709;53.258;-8.814;2023-06-26T09:38:15;101889.19;;;20.92;100.00
64340;BME280;63709;53.258;-8.814;2023-06-26T09:40:41;101893.31;;;20.96;100.00
64340;BME280;63709;53.258;-8.814;2023-06-26T09:43:09;101883.13;;;20.98;100.00
64340;BME280;63709;53.258;-8.814;2023-06-26T09:45:35;101894.84;;;20.99;100.00
64340;BME280;63709;53.258;-8.814;2023-06-26T09:48:07;101892.44;;;20.96;100.00
64340;BME280;63709;53.258;-8.814;2023-06-26T09:50:37;101892.44;;;21.14;100.00
64340;BME280;63709;53.258;-8.814;2023-06-26T09:53:13;101888.22;;;21.19;100.00
64340;BME280;63709;53.258;-8.814;2023-06-26T09:55:39;101887.72;;;21.24;100.00
64340;BME280;63709;53.258;-8.814;2023-06-26T09:58:06;101887.41;;;21.45;100.00
64340;BME280;63709;53.258;-8.814;2023-06-26T10:00:33;101869.59;;;21.50;100.00
64340;BME280;63709;53.258;-8.814;2023-06-26T10:03:00;101896.13;;;21.91;100.00
64340;BME280;63709;53.258;-8.814;2023-06-26T10:05:26;101881.06;;;21.96;100.00
64340;BME280;63709;53.258;-8.814;2023-06-26T10:07:54;101889.69;;;22.34;100.00
64340;BME280;63709;53.258;-8.814;2023-06-26T10:10:22;101895.03;;;22.52;100.00
64340;BME280;63709;53.258;-8.814;2023-06-26T10:12:53;101885.69;;;22.71;100.00
64340;BME280;63709;53.258;-8.814;2023-06-26T10:15:28;101905.66;;;22.96;100.00
64340;BME280;63709;53.258;-8.814;2023-06-26T10:17:55;101908.53;;;23.11;100.00
64340;BME280;63709;53.258;-8.814;2023-06-26T10:20:23;101910.06;;;23.30;100.00
64340;BME280;63709;53.258;-8.814;2023-06-26T10:22:55;101907.13;;;23.39;100.00
64340;BME280;63709;53.258;-8.814;2023-06-26T10:25:26;101912.75;;;23.46;100.00
64340;BME280;63709;53.258;-8.814;2023-06-26T10:27:58;101903.72;;;23.54;100.00
64340;BME280;63709;53.258;-8.814;2023-06-26T10:30:27;101908.47;;;23.68;100.00
64340;BME280;63709;53.258;-8.814;2023-06-26T10:32:55;101927.81;;;23.98;100.00
64340;BME280;63709;53.258;-8.814;2023-06-26T10:35:21;101925.75;;;24.08;100.00
64340;BME280;63709;53.258;-8.814;2023-06-26T10:37:48;101934.81;;;24.00;100.00
64340;BME280;63709;53.258;-8.814;2023-06-26T10:40:26;101935.53;;;23.86;100.00
64340;BME280;63709;53.258;-8.814;2023-06-26T10:43:06;101928.84;;;23.97;100.00
64340;BME280;63709;53.258;-8.814;2023-06-26T10:45:35;101923.53;;;24.03;100.00
64340;BME280;63709;53.258;-8.814;2023-06-26T10:48:02;101908.06;;;23.96;100.00
64340;BME280;63709;53.258;-8.814;2023-06-26T10:50:31;101935.56;;;24.17;100.00
64340;BME280;63709;53.258;-8.814;2023-06-26T10:56:05;101949.44;;;24.07;100.00
64340;BME280;63709;53.258;-8.814;2023-06-26T11:03:41;101936.47;;;24.09;100.00
64340;BME280;63709;53.258;-8.814;2023-06-26T11:06:14;101942.50;;;23.97;100.00
64340;BME280;63709;53.258;-8.814;2023-06-26T11:08:59;101948.28;;;23.94;100.00
64340;BME280;63709;53.258;-8.814;2023-06-26T11:14:27;101942.53;;;23.88;100.00
64340;BME280;63709;53.258;-8.814;2023-06-26T11:16:55;101927.16;;;23.87;100.00
64340;BME280;63709;53.258;-8.814;2023-06-26T11:19:22;101957.44;;;24.09;100.00
64340;BME280;63709;53.258;-8.814;2023-06-26T11:21:48;101952.31;;;24.14;100.00
64340;BME280;63709;53.258;-8.814;2023-06-26T11:24:14;101943.88;;;23.93;100.00
64340;BME280;63709;53.258;-8.814;2023-06-26T11:26:43;101963.28;;;23.98;100.00
64340;BME280;63709;53.258;-8.814;2023-06-26T11:29:09;101968.75;;;23.89;100.00
64340;BME280;63709;53.258;-8.814;2023-06-26T11:31:37;101975.06;;;23.90;100.00
64340;BME280;63709;53.258;-8.814;2023-06-26T11:34:09;101957.56;;;23.68;100.00
64340;BME280;63709;53.258;-8.814;2023-06-26T11:36:39;101978.19;;;23.71;100.00
64340;BME280;63709;53.258;-8.814;2023-06-26T11:39:07;101969.31;;;23.44;100.00
64340;BME280;63709;53.258;-8.814;2023-06-26T11:41:34;101993.50;;;23.31;100.00
64340;BME280;63709;53.258;-8.814;2023-06-26T11:44:04;101956.88;;;23.01;100.00
64340;BME280;63709;53.258;-8.814;2023-06-26T11:46:31;101986.00;;;23.00;100.00
64340;BME280;63709;53.258;-8.814;2023-06-26T11:49:06;101977.91;;;22.74;100.00
64340;BME280;63709;53.258;-8.814;2023-06-26T11:51:34;101987.59;;;22.68;100.00
64340;BME280;63709;53.258;-8.814;2023-06-26T11:54:02;101979.22;;;22.62;100.00
64340;BME280;63709;53.258;-8.814;2023-06-26T11:56:31;101994.19;;;22.58;100.00
64340;BME280;63709;53.258;-8.814;2023-06-26T11:59:11;101998.59;;;22.51;100.00
64340;BME280;63709;53.258;-8.814;2023-06-26T12:01:41;101998.25;;;22.45;100.00
64340;BME280;63709;53.258;-8.814;2023-06-26T12:04:10;101996.38;;;22.46;100.00
64340;BME280;63709;53.258;-8.814;2023-06-26T12:06:42;101992.13;;;22.43;100.00
64340;BME280;63709;53.258;-8.814;2023-06-26T12:09:10;101989.44;;;22.60;100.00
64340;BME280;63709;53.258;-8.814;2023-06-26T12:11:39;101990.13;;;22.62;100.00
64340;BME280;63709;53.258;-8.814;2023-06-26T12:14:07;101997.13;;;22.73;100.00
64340;BME280;63709;53.258;-8.814;2023-06-26T12:16:34;101994.28;;;22.90;100.00
64340;BME280;63709;53.258;-8.814;2023-06-26T12:19:05;101991.59;;;22.99;100.00
64340;BME280;63709;53.258;-8.814;2023-06-26T12:24:04;101987.22;;;23.14;100.00
64340;BME280;63709;53.258;-8.814;2023-06-26T12:26:30;101980.38;;;23.10;100.00
64340;BME280;63709;53.258;-8.814;2023-06-26T12:29:13;101995.03;;;23.17;100.00
64340;BME280;63709;53.258;-8.814;2023-06-26T12:31:42;101995.03;;;23.17;100.00
64340;BME280;63709;53.258;-8.814;2023-06-26T12:34:13;102002.72;;;23.30;100.00
64340;BME280;63709;53.258;-8.814;2023-06-26T12:36:48;102009.66;;;23.32;100.00
64340;BME280;63709;53.258;-8.814;2023-06-26T12:39:19;102014.78;;;23.27;100.00
64340;BME280;63709;53.258;-8.814;2023-06-26T12:44:27;102011.38;;;23.17;100.00
64340;BME280;63709;53.258;-8.814;2023-06-26T12:46:57;102002.16;;;23.02;100.00
64340;BME280;63709;53.258;-8.814;2023-06-26T12:49:36;102006.63;;;23.11;100.00
64340;BME280;63709;53.258;-8.814;2023-06-26T12:52:04;102012.72;;;23.05;100.00
64340;BME280;63709;53.258;-8.814;2023-06-26T12:54:30;102014.59;;;23.12;100.00
64340;BME280;63709;53.258;-8.814;2023-06-26T12:56:57;102012.72;;;23.13;100.00
64340;BME280;63709;53.258;-8.814;2023-06-26T12:59:22;102019.91;;;23.30;100.00